sensor_id;sensor_type;location;lat;lon;timestamp;temperature;humidity
15707;DHT22;7953;54.302;10.128;2023-09-07T00:01:33;18.10;99.90
15707;DHT22;7953;54.302;10.128;2023-09-07T00:03:59;18.00;99.90
15707;DHT22;7953;54.302;10.128;2023-09-07T00:06:28;18.00;99.90
15707;DHT22;7953;54.302;10.128;2023-09-07T00:08:56;18.00;99.90
15707;DHT22;7953;54.302;10.128;2023-09-07T00:11:23;18.00;99.90
15707;DHT22;7953;54.302;10.128;2023-09-07T00:13:50;17.90;99.90
15707;DHT22;7953;54.302;10.128;2023-09-07T00:16:17;17.90;99.90
15707;DHT22;7953;54.302;10.128;2023-09-07T00:18:44;17.90;99.90
15707;DHT22;7953;54.302;10.128;2023-09-07T00:21:11;17.90;99.90
15707;DHT22;7953;54.302;10.128;2023-09-07T00:23:39;17.90;99.90
15707;DHT22;7953;54.302;10.128;2023-09-07T00:26:07;17.80;99.90
15707;DHT22;7953;54.302;10.128;2023-09-07T00:28:34;17.80;99.90
15707;DHT22;7953;54.302;10.128;2023-09-07T00:31:01;17.80;99.90
15707;DHT22;7953;54.302;10.128;2023-09-07T00:33:29;17.80;99.90
15707;DHT22;7953;54.302;10.128;2023-09-07T00:35:56;17.80;99.90
15707;DHT22;7953;54.302;10.128;2023-09-07T00:38:22;17.70;99.90
15707;DHT22;7953;54.302;10.128;2023-09-07T00:40:49;17.70;99.90
15707;DHT22;7953;54.302;10.128;2023-09-07T00:43:17;17.70;99.90
15707;DHT22;7953;54.302;10.128;2023-09-07T00:45:44;17.70;99.90
15707;DHT22;7953;54.302;10.128;2023-09-07T00:48:12;17.60;99.90
15707;DHT22;7953;54.302;10.128;2023-09-07T00:50:40;17.60;99.90
15707;DHT22;7953;54.302;10.128;2023-09-07T00:53:07;17.60;99.90
15707;DHT22;7953;54.302;10.128;2023-09-07T00:55:34;17.60;99.90
15707;DHT22;7953;54.302;10.128;2023-09-07T00:58:03;17.60;99.90
15707;DHT22;7953;54.302;10.128;2023-09-07T01:00:32;17.50;99.90
15707;DHT22;7953;54.302;10.128;2023-09-07T01:02:59;17.50;99.90
15707;DHT22;7953;54.302;10.128;2023-09-07T01:05:34;17.50;99.90
15707;DHT22;7953;54.302;10.128;2023-09-07T01:08:11;17.50;99.90
15707;DHT22;7953;54.302;10.128;2023-09-07T01:10:39;17.40;99.90
15707;DHT22;7953;54.302;10.128;2023-09-07T01:13:05;17.50;99.90
15707;DHT22;7953;54.302;10.128;2023-09-07T01:15:34;17.40;99.90
15707;DHT22;7953;54.302;10.128;2023-09-07T01:18:01;17.40;99.90
15707;DHT22;7953;54.302;10.128;2023-09-07T01:20:30;17.40;99.90
15707;DHT22;7953;54.302;10.128;2023-09-07T01:23:00;17.40;99.90
15707;DHT22;7953;54.302;10.128;2023-09-07T01:25:27;17.40;99.90
15707;DHT22;7953;54.302;10.128;2023-09-07T01:27:55;17.40;99.90
15707;DHT22;7953;54.302;10.128;2023-09-07T01:30:21;17.30;99.90
15707;DHT22;7953;54.302;10.128;2023-09-07T01:32:48;17.30;99.90
15707;DHT22;7953;54.302;10.128;2023-09-07T01:35:16;17.30;99.90
15707;DHT22;7953;54.302;10.128;2023-09-07T01:37:47;17.30;99.90
15707;DHT22;7953;54.302;10.128;2023-09-07T01:40:15;17.30;99.90
15707;DHT22;7953;54.302;10.128;2023-09-07T01:42:42;17.30;99.90
15707;DHT22;7953;54.302;10.128;2023-09-07T01:45:09;17.20;99.90
15707;DHT22;7953;54.302;10.128;2023-09-07T01:47:36;17.20;99.90
15707;DHT22;7953;54.302;10.128;2023-09-07T01:50:04;17.20;99.90
15707;DHT22;7953;54.302;10.128;2023-09-07T01:52:31;17.20;99.90
15707;DHT22;7953;54.302;10.128;2023-09-07T01:54:58;17.20;99.90
15707;DHT22;7953;54.302;10.128;2023-09-07T01:57:26;17.20;99.90
15707;DHT22;7953;54.302;10.128;2023-09-07T01:59:54;17.20;99.90
15707;DHT22;7953;54.302;10.128;2023-09-07T02:02:21;17.10;99.90
15707;DHT22;7953;54.302;10.128;2023-09-07T02:04:48;17.10;99.90
15707;DHT22;7953;54.302;10.128;2023-09-07T02:07:14;17.20;99.90
15707;DHT22;7953;54.302;10.128;2023-09-07T02:09:42;17.10;99.90
15707;DHT22;7953;54.302;10.128;2023-09-07T02:12:09;17.10;99.90
15707;DHT22;7953;54.302;10.128;2023-09-07T02:14:37;17.10;99.90
15707;DHT22;7953;54.302;10.128;2023-09-07T02:17:04;17.00;99.90
15707;DHT22;7953;54.302;10.128;2023-09-07T02:19:31;17.00;99.90
15707;DHT22;7953;54.302;10.128;2023-09-07T02:21:58;17.00;99.90
15707;DHT22;7953;54.302;10.128;2023-09-07T02:24:25;17.00;99.90
15707;DHT22;7953;54.302;10.128;2023-09-07T02:26:52;17.00;99.90
15707;DHT22;7953;54.302;10.128;2023-09-07T02:29:18;16.90;99.90
15707;DHT22;7953;54.302;10.128;2023-09-07T02:31:47;16.90;99.90
15707;DHT22;7953;54.302;10.128;2023-09-07T02:34:13;16.90;99.90
15707;DHT22;7953;54.302;10.128;2023-09-07T02:36:40;16.90;99.90
15707;DHT22;7953;54.302;10.128;2023-09-07T02:39:07;16.90;99.90
15707;DHT22;7953;54.302;10.128;2023-09-07T02:41:34;16.90;99.90
15707;DHT22;7953;54.302;10.128;2023-09-07T02:44:01;16.90;99.90
15707;DHT22;7953;54.302;10.128;2023-09-07T02:46:28;16.90;99.90
15707;DHT22;7953;54.302;10.128;2023-09-07T02:48:56;16.90;99.90
15707;DHT22;7953;54.302;10.128;2023-09-07T02:51:23;16.80;99.90
15707;DHT22;7953;54.302;10.128;2023-09-07T02:53:50;16.80;99.90
15707;DHT22;7953;54.302;10.128;2023-09-07T02:56:17;16.80;99.90
15707;DHT22;7953;54.302;10.128;2023-09-07T02:58:44;16.80;99.90
15707;DHT22;7953;54.302;10.128;2023-09-07T03:01:11;16.80;99.90
15707;DHT22;7953;54.302;10.128;2023-09-07T03:03:39;16.70;99.90
15707;DHT22;7953;54.302;10.128;2023-09-07T03:06:10;16.70;99.90
15707;DHT22;7953;54.302;10.128;2023-09-07T03:08:37;16.70;99.90
15707;DHT22;7953;54.302;10.128;2023-09-07T03:11:04;16.70;99.90
15707;DHT22;7953;54.302;10.128;2023-09-07T03:13:31;16.60;99.90
15707;DHT22;7953;54.302;10.128;2023-09-07T03:15:58;16.60;99.90
15707;DHT22;7953;54.302;10.128;2023-09-07T03:18:25;16.60;99.90
15707;DHT22;7953;54.302;10.128;2023-09-07T03:20:54;16.60;99.90
15707;DHT22;7953;54.302;10.128;2023-09-07T03:23:22;16.50;99.90
15707;DHT22;7953;54.302;10.128;2023-09-07T03:25:49;16.50;99.90
15707;DHT22;7953;54.302;10.128;2023-09-07T03:28:16;16.40;99.90
15707;DHT22;7953;54.302;10.128;2023-09-07T03:30:43;16.40;99.90
15707;DHT22;7953;54.302;10.128;2023-09-07T03:33:10;16.40;99.90
15707;DHT22;7953;54.302;10.128;2023-09-07T03:35:37;16.40;99.90
15707;DHT22;7953;54.302;10.128;2023-09-07T03:38:04;16.40;99.90
15707;DHT22;7953;54.302;10.128;2023-09-07T03:40:32;16.30;99.90
15707;DHT22;7953;54.302;10.128;2023-09-07T03:42:59;16.30;99.90
15707;DHT22;7953;54.302;10.128;2023-09-07T03:45:26;16.30;99.90
15707;DHT22;7953;54.302;10.128;2023-09-07T03:47:52;16.30;99.90
15707;DHT22;7953;54.302;10.128;2023-09-07T03:50:19;16.20;99.90
15707;DHT22;7953;54.302;10.128;2023-09-07T03:52:47;16.20;99.90
15707;DHT22;7953;54.302;10.128;2023-09-07T03:55:14;16.20;99.90
15707;DHT22;7953;54.302;10.128;2023-09-07T03:57:42;16.20;99.90
15707;DHT22;7953;54.302;10.128;2023-09-07T04:00:10;16.20;99.90
15707;DHT22;7953;54.302;10.128;2023-09-07T04:02:37;16.20;99.90
15707;DHT22;7953;54.302;10.128;2023-09-07T04:05:04;16.10;99.90
15707;DHT22;7953;54.302;10.128;2023-09-07T04:07:31;16.10;99.90
15707;DHT22;7953;54.302;10.128;2023-09-07T04:09:58;16.10;99.90
15707;DHT22;7953;54.302;10.128;2023-09-07T04:12:25;16.10;99.90
15707;DHT22;7953;54.302;10.128;2023-09-07T04:14:53;16.10;99.90
15707;DHT22;7953;54.302;10.128;2023-09-07T04:17:20;16.00;99.90
15707;DHT22;7953;54.302;10.128;2023-09-07T04:19:47;16.00;99.90
15707;DHT22;7953;54.302;10.128;2023-09-07T04:22:14;16.00;99.90
15707;DHT22;7953;54.302;10.128;2023-09-07T04:24:41;16.00;99.90
15707;DHT22;7953;54.302;10.128;2023-09-07T04:27:08;16.00;99.90
15707;DHT22;7953;54.302;10.128;2023-09-07T04:29:35;16.00;99.90
15707;DHT22;7953;54.302;10.128;2023-09-07T04:32:03;16.00;99.90
15707;DHT22;7953;54.302;10.128;2023-09-07T04:34:30;16.00;99.90
15707;DHT22;7953;54.302;10.128;2023-09-07T04:36:57;16.00;99.90
15707;DHT22;7953;54.302;10.128;2023-09-07T04:39:24;16.00;99.90
15707;DHT22;7953;54.302;10.128;2023-09-07T04:41:51;15.90;99.90
15707;DHT22;7953;54.302;10.128;2023-09-07T04:44:18;15.90;99.90
15707;DHT22;7953;54.302;10.128;2023-09-07T04:46:45;15.90;99.90
15707;DHT22;7953;54.302;10.128;2023-09-07T04:49:13;15.90;99.90
15707;DHT22;7953;54.302;10.128;2023-09-07T04:51:39;15.90;99.90
15707;DHT22;7953;54.302;10.128;2023-09-07T04:54:06;15.80;99.90
15707;DHT22;7953;54.302;10.128;2023-09-07T04:56:33;15.80;99.90
15707;DHT22;7953;54.302;10.128;2023-09-07T04:59:00;15.80;99.90
15707;DHT22;7953;54.302;10.128;2023-09-07T05:01:26;15.80;99.90
15707;DHT22;7953;54.302;10.128;2023-09-07T05:03:53;15.80;99.90
15707;DHT22;7953;54.302;10.128;2023-09-07T05:06:21;15.80;99.90
15707;DHT22;7953;54.302;10.128;2023-09-07T05:08:49;15.80;99.90
15707;DHT22;7953;54.302;10.128;2023-09-07T05:11:16;15.80;99.90
15707;DHT22;7953;54.302;10.128;2023-09-07T05:13:43;15.80;99.90
15707;DHT22;7953;54.302;10.128;2023-09-07T05:16:09;15.80;99.90
15707;DHT22;7953;54.302;10.128;2023-09-07T05:18:36;15.80;99.90
15707;DHT22;7953;54.302;10.128;2023-09-07T05:21:11;15.80;99.90
15707;DHT22;7953;54.302;10.128;2023-09-07T05:23:40;15.90;99.90
15707;DHT22;7953;54.302;10.128;2023-09-07T05:26:07;15.90;99.90
15707;DHT22;7953;54.302;10.128;2023-09-07T05:28:33;15.90;99.90
15707;DHT22;7953;54.302;10.128;2023-09-07T05:31:00;15.90;99.90
15707;DHT22;7953;54.302;10.128;2023-09-07T05:33:27;16.00;99.90
15707;DHT22;7953;54.302;10.128;2023-09-07T05:35:54;16.00;99.90
15707;DHT22;7953;54.302;10.128;2023-09-07T05:38:21;16.00;99.90
15707;DHT22;7953;54.302;10.128;2023-09-07T05:40:49;16.10;99.90
15707;DHT22;7953;54.302;10.128;2023-09-07T05:43:19;16.10;99.90
15707;DHT22;7953;54.302;10.128;2023-09-07T05:45:46;16.10;99.90
15707;DHT22;7953;54.302;10.128;2023-09-07T05:48:13;16.20;99.90
15707;DHT22;7953;54.302;10.128;2023-09-07T05:50:42;16.20;99.90
15707;DHT22;7953;54.302;10.128;2023-09-07T05:53:08;16.20;99.90
15707;DHT22;7953;54.302;10.128;2023-09-07T05:55:35;16.20;99.90
15707;DHT22;7953;54.302;10.128;2023-09-07T05:58:06;16.20;99.90
15707;DHT22;7953;54.302;10.128;2023-09-07T06:00:34;16.30;99.90
15707;DHT22;7953;54.302;10.128;2023-09-07T06:03:01;16.30;99.90
15707;DHT22;7953;54.302;10.128;2023-09-07T06:05:28;16.40;99.90
15707;DHT22;7953;54.302;10.128;2023-09-07T06:07:55;16.40;99.90
15707;DHT22;7953;54.302;10.128;2023-09-07T06:10:22;16.50;99.90
15707;DHT22;7953;54.302;10.128;2023-09-07T06:12:49;16.50;99.90
15707;DHT22;7953;54.302;10.128;2023-09-07T06:15:17;16.60;99.90
15707;DHT22;7953;54.302;10.128;2023-09-07T06:17:44;16.70;99.90
15707;DHT22;7953;54.302;10.128;2023-09-07T06:20:12;16.70;99.90
15707;DHT22;7953;54.302;10.128;2023-09-07T06:22:38;16.80;99.90
15707;DHT22;7953;54.302;10.128;2023-09-07T06:25:06;16.90;99.90
15707;DHT22;7953;54.302;10.128;2023-09-07T06:27:32;16.90;99.90
15707;DHT22;7953;54.302;10.128;2023-09-07T06:29:59;17.00;99.90
15707;DHT22;7953;54.302;10.128;2023-09-07T06:32:27;17.10;99.90
15707;DHT22;7953;54.302;10.128;2023-09-07T06:34:54;17.10;99.90
15707;DHT22;7953;54.302;10.128;2023-09-07T06:37:21;17.20;99.90
15707;DHT22;7953;54.302;10.128;2023-09-07T06:39:50;17.30;99.90
15707;DHT22;7953;54.302;10.128;2023-09-07T06:42:16;17.40;99.90
15707;DHT22;7953;54.302;10.128;2023-09-07T06:44:43;17.40;99.90
15707;DHT22;7953;54.302;10.128;2023-09-07T06:47:10;17.40;99.90
15707;DHT22;7953;54.302;10.128;2023-09-07T06:49:39;17.40;99.90
15707;DHT22;7953;54.302;10.128;2023-09-07T06:52:05;17.50;99.90
15707;DHT22;7953;54.302;10.128;2023-09-07T06:54:32;17.50;99.90
15707;DHT22;7953;54.302;10.128;2023-09-07T06:56:59;17.60;99.90
15707;DHT22;7953;54.302;10.128;2023-09-07T06:59:26;17.70;99.90
15707;DHT22;7953;54.302;10.128;2023-09-07T07:01:53;17.70;99.90
15707;DHT22;7953;54.302;10.128;2023-09-07T07:04:19;17.70;99.90
15707;DHT22;7953;54.302;10.128;2023-09-07T07:06:47;17.80;99.90
15707;DHT22;7953;54.302;10.128;2023-09-07T07:09:14;17.90;99.90
15707;DHT22;7953;54.302;10.128;2023-09-07T07:11:41;18.00;99.90
15707;DHT22;7953;54.302;10.128;2023-09-07T07:14:08;18.00;99.90
15707;DHT22;7953;54.302;10.128;2023-09-07T07:16:36;18.10;99.90
15707;DHT22;7953;54.302;10.128;2023-09-07T07:19:03;18.20;99.90
15707;DHT22;7953;54.302;10.128;2023-09-07T07:21:30;18.30;99.90
15707;DHT22;7953;54.302;10.128;2023-09-07T07:23:58;18.30;99.90
15707;DHT22;7953;54.302;10.128;2023-09-07T07:26:25;18.40;99.90
15707;DHT22;7953;54.302;10.128;2023-09-07T07:28:52;18.50;99.90
15707;DHT22;7953;54.302;10.128;2023-09-07T07:31:19;18.50;99.90
15707;DHT22;7953;54.302;10.128;2023-09-07T07:33:46;18.50;99.90
15707;DHT22;7953;54.302;10.128;2023-09-07T07:36:13;18.70;99.90
15707;DHT22;7953;54.302;10.128;2023-09-07T07:38:40;18.70;99.90
15707;DHT22;7953;54.302;10.128;2023-09-07T07:41:08;18.80;99.90
15707;DHT22;7953;54.302;10.128;2023-09-07T07:43:35;18.90;99.90
15707;DHT22;7953;54.302;10.128;2023-09-07T07:46:02;18.90;99.90
15707;DHT22;7953;54.302;10.128;2023-09-07T07:48:29;19.00;99.90
15707;DHT22;7953;54.302;10.128;2023-09-07T07:50:56;19.10;99.90
15707;DHT22;7953;54.302;10.128;2023-09-07T07:53:23;19.10;99.90
15707;DHT22;7953;54.302;10.128;2023-09-07T07:55:50;19.20;99.90
15707;DHT22;7953;54.302;10.128;2023-09-07T07:58:18;19.30;99.90
15707;DHT22;7953;54.302;10.128;2023-09-07T08:00:45;19.50;99.90
15707;DHT22;7953;54.302;10.128;2023-09-07T08:03:13;19.60;99.90
15707;DHT22;7953;54.302;10.128;2023-09-07T08:05:40;19.70;99.90
15707;DHT22;7953;54.302;10.128;2023-09-07T08:08:07;20.00;99.90
15707;DHT22;7953;54.302;10.128;2023-09-07T08:10:34;20.20;99.90
15707;DHT22;7953;54.302;10.128;2023-09-07T08:13:02;20.30;99.90
15707;DHT22;7953;54.302;10.128;2023-09-07T08:15:32;20.40;99.90
15707;DHT22;7953;54.302;10.128;2023-09-07T08:17:59;20.50;99.90
15707;DHT22;7953;54.302;10.128;2023-09-07T08:20:26;20.60;99.90
15707;DHT22;7953;54.302;10.128;2023-09-07T08:22:54;20.70;99.90
15707;DHT22;7953;54.302;10.128;2023-09-07T08:25:21;20.90;99.90
15707;DHT22;7953;54.302;10.128;2023-09-07T08:27:48;21.10;99.90
15707;DHT22;7953;54.302;10.128;2023-09-07T08:30:16;21.30;99.90
15707;DHT22;7953;54.302;10.128;2023-09-07T08:32:45;21.60;99.90
15707;DHT22;7953;54.302;10.128;2023-09-07T08:35:12;22.00;99.90
15707;DHT22;7953;54.302;10.128;2023-09-07T08:37:40;22.40;99.90
15707;DHT22;7953;54.302;10.128;2023-09-07T08:40:08;22.80;99.90
15707;DHT22;7953;54.302;10.128;2023-09-07T08:42:36;23.20;99.90
15707;DHT22;7953;54.302;10.128;2023-09-07T08:45:04;23.50;99.90
15707;DHT22;7953;54.302;10.128;2023-09-07T08:47:34;23.80;99.90
15707;DHT22;7953;54.302;10.128;2023-09-07T08:50:05;24.00;99.90
15707;DHT22;7953;54.302;10.128;2023-09-07T08:52:33;24.40;99.90
15707;DHT22;7953;54.302;10.128;2023-09-07T08:55:01;24.70;99.90
15707;DHT22;7953;54.302;10.128;2023-09-07T08:57:30;25.00;99.90
15707;DHT22;7953;54.302;10.128;2023-09-07T08:59:57;25.40;99.90
15707;DHT22;7953;54.302;10.128;2023-09-07T09:02:24;25.60;99.90
15707;DHT22;7953;54.302;10.128;2023-09-07T09:04:51;25.90;99.90
15707;DHT22;7953;54.302;10.128;2023-09-07T09:07:20;26.30;99.90
15707;DHT22;7953;54.302;10.128;2023-09-07T09:09:47;26.60;99.90
15707;DHT22;7953;54.302;10.128;2023-09-07T09:12:15;26.80;99.90
15707;DHT22;7953;54.302;10.128;2023-09-07T09:14:42;27.00;99.90
15707;DHT22;7953;54.302;10.128;2023-09-07T09:17:14;27.30;99.90
15707;DHT22;7953;54.302;10.128;2023-09-07T09:19:41;27.60;99.90
15707;DHT22;7953;54.302;10.128;2023-09-07T09:22:09;27.90;99.90
15707;DHT22;7953;54.302;10.128;2023-09-07T09:24:38;28.00;99.90
15707;DHT22;7953;54.302;10.128;2023-09-07T09:27:05;28.10;99.90
15707;DHT22;7953;54.302;10.128;2023-09-07T09:29:32;28.30;99.90
15707;DHT22;7953;54.302;10.128;2023-09-07T09:32:00;28.60;99.90
15707;DHT22;7953;54.302;10.128;2023-09-07T09:34:32;28.80;99.90
15707;DHT22;7953;54.302;10.128;2023-09-07T09:36:59;29.00;99.90
15707;DHT22;7953;54.302;10.128;2023-09-07T09:39:26;29.10;99.90
15707;DHT22;7953;54.302;10.128;2023-09-07T09:41:55;29.20;99.90
15707;DHT22;7953;54.302;10.128;2023-09-07T09:44:23;29.20;99.90
15707;DHT22;7953;54.302;10.128;2023-09-07T09:46:51;29.30;99.90
15707;DHT22;7953;54.302;10.128;2023-09-07T09:49:20;29.50;99.90
15707;DHT22;7953;54.302;10.128;2023-09-07T09:51:48;29.30;99.90
15707;DHT22;7953;54.302;10.128;2023-09-07T09:54:16;29.40;99.90
15707;DHT22;7953;54.302;10.128;2023-09-07T09:56:43;29.50;99.90
15707;DHT22;7953;54.302;10.128;2023-09-07T09:59:12;29.40;99.90
15707;DHT22;7953;54.302;10.128;2023-09-07T10:01:43;29.50;99.90
15707;DHT22;7953;54.302;10.128;2023-09-07T10:04:12;29.50;99.90
15707;DHT22;7953;54.302;10.128;2023-09-07T10:06:50;29.60;99.90
15707;DHT22;7953;54.302;10.128;2023-09-07T10:09:18;29.70;99.90
15707;DHT22;7953;54.302;10.128;2023-09-07T10:11:51;29.60;99.90
15707;DHT22;7953;54.302;10.128;2023-09-07T10:14:20;29.50;99.90
15707;DHT22;7953;54.302;10.128;2023-09-07T10:16:49;29.40;99.90
15707;DHT22;7953;54.302;10.128;2023-09-07T10:19:17;29.40;99.90
15707;DHT22;7953;54.302;10.128;2023-09-07T10:21:45;29.50;99.90
15707;DHT22;7953;54.302;10.128;2023-09-07T10:24:12;29.70;99.90
15707;DHT22;7953;54.302;10.128;2023-09-07T10:26:56;29.90;99.90
15707;DHT22;7953;54.302;10.128;2023-09-07T10:29:25;29.90;99.90
15707;DHT22;7953;54.302;10.128;2023-09-07T10:31:52;29.60;99.90
15707;DHT22;7953;54.302;10.128;2023-09-07T10:34:19;29.70;99.90
15707;DHT22;7953;54.302;10.128;2023-09-07T10:36:47;29.90;99.90
15707;DHT22;7953;54.302;10.128;2023-09-07T10:39:16;30.00;99.90
15707;DHT22;7953;54.302;10.128;2023-09-07T10:41:44;30.00;99.90
15707;DHT22;7953;54.302;10.128;2023-09-07T10:44:11;30.10;99.90
15707;DHT22;7953;54.302;10.128;2023-09-07T10:46:40;30.20;99.90
15707;DHT22;7953;54.302;10.128;2023-09-07T10:49:08;30.40;99.90
15707;DHT22;7953;54.302;10.128;2023-09-07T10:51:41;30.50;99.90
15707;DHT22;7953;54.302;10.128;2023-09-07T10:54:16;30.60;99.90
15707;DHT22;7953;54.302;10.128;2023-09-07T10:56:46;30.70;99.90
15707;DHT22;7953;54.302;10.128;2023-09-07T10:59:13;30.70;99.90
15707;DHT22;7953;54.302;10.128;2023-09-07T11:01:43;30.80;99.90
15707;DHT22;7953;54.302;10.128;2023-09-07T11:04:10;30.90;99.90
15707;DHT22;7953;54.302;10.128;2023-09-07T11:06:38;30.80;99.90
15707;DHT22;7953;54.302;10.128;2023-09-07T11:09:06;30.70;99.90
15707;DHT22;7953;54.302;10.128;2023-09-07T11:11:35;30.60;99.90
15707;DHT22;7953;54.302;10.128;2023-09-07T11:14:02;30.50;99.90
15707;DHT22;7953;54.302;10.128;2023-09-07T11:16:30;30.40;99.90
15707;DHT22;7953;54.302;10.128;2023-09-07T11:19:02;30.30;99.90
15707;DHT22;7953;54.302;10.128;2023-09-07T11:21:30;30.10;99.90
15707;DHT22;7953;54.302;10.128;2023-09-07T11:23:58;29.80;99.90
15707;DHT22;7953;54.302;10.128;2023-09-07T11:26:25;29.70;99.90
15707;DHT22;7953;54.302;10.128;2023-09-07T11:28:52;29.40;99.90
15707;DHT22;7953;54.302;10.128;2023-09-07T11:31:19;29.20;99.90
15707;DHT22;7953;54.302;10.128;2023-09-07T11:33:47;29.00;99.90
15707;DHT22;7953;54.302;10.128;2023-09-07T11:36:15;29.00;99.90
15707;DHT22;7953;54.302;10.128;2023-09-07T11:38:43;28.80;99.90
15707;DHT22;7953;54.302;10.128;2023-09-07T11:41:11;28.80;99.90
15707;DHT22;7953;54.302;10.128;2023-09-07T11:43:38;28.80;99.90
15707;DHT22;7953;54.302;10.128;2023-09-07T11:46:05;28.90;99.90
15707;DHT22;7953;54.302;10.128;2023-09-07T11:48:32;29.00;99.90
15707;DHT22;7953;54.302;10.128;2023-09-07T11:51:00;29.00;99.90
15707;DHT22;7953;54.302;10.128;2023-09-07T11:53:28;29.10;99.90
15707;DHT22;7953;54.302;10.128;2023-09-07T11:55:56;29.30;99.90
15707;DHT22;7953;54.302;10.128;2023-09-07T11:58:24;29.60;99.90
15707;DHT22;7953;54.302;10.128;2023-09-07T12:00:52;29.70;99.90
15707;DHT22;7953;54.302;10.128;2023-09-07T12:03:20;29.70;99.90
15707;DHT22;7953;54.302;10.128;2023-09-07T12:05:47;29.60;99.90
15707;DHT22;7953;54.302;10.128;2023-09-07T12:08:14;29.70;99.90
15707;DHT22;7953;54.302;10.128;2023-09-07T12:10:42;29.80;99.90
15707;DHT22;7953;54.302;10.128;2023-09-07T12:13:09;30.00;99.90
15707;DHT22;7953;54.302;10.128;2023-09-07T12:15:36;30.10;99.90
15707;DHT22;7953;54.302;10.128;2023-09-07T12:18:03;30.20;99.90
15707;DHT22;7953;54.302;10.128;2023-09-07T12:20:30;30.20;99.90
15707;DHT22;7953;54.302;10.128;2023-09-07T12:22:57;30.00;99.90
15707;DHT22;7953;54.302;10.128;2023-09-07T12:25:24;29.80;99.90
15707;DHT22;7953;54.302;10.128;2023-09-07T12:27:52;29.50;99.90
15707;DHT22;7953;54.302;10.128;2023-09-07T12:30:20;29.60;99.90
15707;DHT22;7953;54.302;10.128;2023-09-07T12:32:47;29.50;99.90
15707;DHT22;7953;54.302;10.128;2023-09-07T12:35:16;29.50;99.90
15707;DHT22;7953;54.302;10.128;2023-09-07T12:37:45;29.50;99.90
15707;DHT22;7953;54.302;10.128;2023-09-07T12:40:12;29.50;99.90
15707;DHT22;7953;54.302;10.128;2023-09-07T12:42:40;29.60;99.90
15707;DHT22;7953;54.302;10.128;2023-09-07T12:45:09;29.60;99.90
15707;DHT22;7953;54.302;10.128;2023-09-07T12:47:38;29.60;99.90
15707;DHT22;7953;54.302;10.128;2023-09-07T12:50:05;29.40;99.90
15707;DHT22;7953;54.302;10.128;2023-09-07T12:52:33;29.30;99.90
15707;DHT22;7953;54.302;10.128;2023-09-07T12:55:01;29.20;99.90
15707;DHT22;7953;54.302;10.128;2023-09-07T12:57:27;29.10;99.90
15707;DHT22;7953;54.302;10.128;2023-09-07T12:59:54;29.20;99.90
15707;DHT22;7953;54.302;10.128;2023-09-07T13:02:23;29.20;99.90
15707;DHT22;7953;54.302;10.128;2023-09-07T13:04:49;29.20;99.90
15707;DHT22;7953;54.302;10.128;2023-09-07T13:07:16;29.20;99.90
15707;DHT22;7953;54.302;10.128;2023-09-07T13:09:43;29.20;99.90
15707;DHT22;7953;54.302;10.128;2023-09-07T13:12:11;29.30;99.90
15707;DHT22;7953;54.302;10.128;2023-09-07T13:14:38;29.30;99.90
15707;DHT22;7953;54.302;10.128;2023-09-07T13:17:05;29.30;99.90
15707;DHT22;7953;54.302;10.128;2023-09-07T13:19:33;29.30;99.90
15707;DHT22;7953;54.302;10.128;2023-09-07T13:22:00;29.40;99.90
15707;DHT22;7953;54.302;10.128;2023-09-07T13:24:27;29.50;99.90
15707;DHT22;7953;54.302;10.128;2023-09-07T13:26:54;29.50;99.90
15707;DHT22;7953;54.302;10.128;2023-09-07T13:29:21;29.40;99.90
15707;DHT22;7953;54.302;10.128;2023-09-07T13:31:48;29.40;99.90
15707;DHT22;7953;54.302;10.128;2023-09-07T13:34:15;29.40;99.90
15707;DHT22;7953;54.302;10.128;2023-09-07T13:36:43;29.40;99.90
15707;DHT22;7953;54.302;10.128;2023-09-07T13:39:10;29.30;99.90
15707;DHT22;7953;54.302;10.128;2023-09-07T13:41:37;29.30;99.90
15707;DHT22;7953;54.302;10.128;2023-09-07T13:44:04;29.30;99.90
15707;DHT22;7953;54.302;10.128;2023-09-07T13:46:31;29.30;99.90
15707;DHT22;7953;54.302;10.128;2023-09-07T13:48:58;29.40;99.90
15707;DHT22;7953;54.302;10.128;2023-09-07T13:51:25;29.30;99.90
15707;DHT22;7953;54.302;10.128;2023-09-07T13:53:54;29.30;99.90
15707;DHT22;7953;54.302;10.128;2023-09-07T13:56:21;29.30;99.90
15707;DHT22;7953;54.302;10.128;2023-09-07T13:58:47;29.40;99.90
15707;DHT22;7953;54.302;10.128;2023-09-07T14:01:14;29.40;99.90
15707;DHT22;7953;54.302;10.128;2023-09-07T14:03:41;29.50;99.90
15707;DHT22;7953;54.302;10.128;2023-09-07T14:06:08;29.50;99.90
15707;DHT22;7953;54.302;10.128;2023-09-07T14:08:35;29.60;99.90
15707;DHT22;7953;54.302;10.128;2023-09-07T14:11:03;29.60;99.90
15707;DHT22;7953;54.302;10.128;2023-09-07T14:13:31;29.80;99.90
15707;DHT22;7953;54.302;10.128;2023-09-07T14:16:00;29.90;99.90
15707;DHT22;7953;54.302;10.128;2023-09-07T14:18:27;29.90;99.90
15707;DHT22;7953;54.302;10.128;2023-09-07T14:20:54;30.00;99.90
15707;DHT22;7953;54.302;10.128;2023-09-07T14:23:23;30.10;99.90
15707;DHT22;7953;54.302;10.128;2023-09-07T14:25:51;30.20;99.90
15707;DHT22;7953;54.302;10.128;2023-09-07T14:28:19;30.30;99.90
15707;DHT22;7953;54.302;10.128;2023-09-07T14:30:46;30.30;99.90
15707;DHT22;7953;54.302;10.128;2023-09-07T14:33:13;30.30;99.90
15707;DHT22;7953;54.302;10.128;2023-09-07T14:35:40;30.30;99.90
15707;DHT22;7953;54.302;10.128;2023-09-07T14:38:07;30.30;99.90
15707;DHT22;7953;54.302;10.128;2023-09-07T14:40:34;30.30;99.90
15707;DHT22;7953;54.302;10.128;2023-09-07T14:43:01;30.30;99.90
15707;DHT22;7953;54.302;10.128;2023-09-07T14:45:29;30.20;99.90
15707;DHT22;7953;54.302;10.128;2023-09-07T14:47:56;30.10;99.90
15707;DHT22;7953;54.302;10.128;2023-09-07T14:50:23;30.20;99.90
15707;DHT22;7953;54.302;10.128;2023-09-07T14:52:49;30.20;99.90
15707;DHT22;7953;54.302;10.128;2023-09-07T14:55:17;30.20;99.90
15707;DHT22;7953;54.302;10.128;2023-09-07T14:57:44;30.30;99.90
15707;DHT22;7953;54.302;10.128;2023-09-07T15:00:12;30.30;99.90
15707;DHT22;7953;54.302;10.128;2023-09-07T15:02:40;30.20;99.90
15707;DHT22;7953;54.302;10.128;2023-09-07T15:05:07;30.20;99.90
15707;DHT22;7953;54.302;10.128;2023-09-07T15:07:34;30.20;99.90
15707;DHT22;7953;54.302;10.128;2023-09-07T15:10:01;30.10;99.90
15707;DHT22;7953;54.302;10.128;2023-09-07T15:12:30;30.10;99.90
15707;DHT22;7953;54.302;10.128;2023-09-07T15:14:57;30.10;99.90
15707;DHT22;7953;54.302;10.128;2023-09-07T15:17:23;30.00;99.90
15707;DHT22;7953;54.302;10.128;2023-09-07T15:19:52;30.00;99.90
15707;DHT22;7953;54.302;10.128;2023-09-07T15:22:18;29.90;99.90
15707;DHT22;7953;54.302;10.128;2023-09-07T15:24:45;29.80;99.90
15707;DHT22;7953;54.302;10.128;2023-09-07T15:27:12;29.80;99.90
15707;DHT22;7953;54.302;10.128;2023-09-07T15:29:39;29.80;99.90
15707;DHT22;7953;54.302;10.128;2023-09-07T15:32:06;29.70;99.90